Map

Track Data

SID SEASON NUMBER BASIN SUBBASIN NAME ISO_TIME NATURE LAT LON WMO_WIND WMO_PRES WMO_AGENCY TRACK_TYPE DIST2LAND LANDFALL IFLAG USA_AGENCY USA_ATCF_ID USA_LAT USA_LON USA_RECORD USA_STATUS USA_WIND USA_PRES USA_SSHS USA_R34_NE USA_R34_SE USA_R34_SW USA_R34_NW USA_R50_NE USA_R50_SE USA_R50_SW USA_R50_NW USA_R64_NE USA_R64_SE USA_R64_SW USA_R64_NW USA_POCI USA_ROCI USA_RMW USA_EYE TOKYO_LAT TOKYO_LON TOKYO_GRADE TOKYO_WIND TOKYO_PRES TOKYO_R50_DIR TOKYO_R50_LONG TOKYO_R50_SHORT TOKYO_R30_DIR TOKYO_R30_LONG TOKYO_R30_SHORT TOKYO_LAND CMA_LAT CMA_LON CMA_CAT CMA_WIND CMA_PRES HKO_LAT HKO_LON HKO_CAT HKO_WIND HKO_PRES NEWDELHI_LAT NEWDELHI_LON NEWDELHI_GRADE NEWDELHI_WIND NEWDELHI_PRES NEWDELHI_CI NEWDELHI_DP NEWDELHI_POCI REUNION_LAT REUNION_LON REUNION_TYPE REUNION_WIND REUNION_PRES REUNION_TNUM REUNION_CI REUNION_RMW REUNION_R34_NE REUNION_R34_SE REUNION_R34_SW REUNION_R34_NW REUNION_R50_NE REUNION_R50_SE REUNION_R50_SW REUNION_R50_NW REUNION_R64_NE REUNION_R64_SE REUNION_R64_SW REUNION_R64_NW BOM_LAT BOM_LON BOM_TYPE BOM_WIND BOM_PRES BOM_TNUM BOM_CI BOM_RMW BOM_R34_NE BOM_R34_SE BOM_R34_SW BOM_R34_NW BOM_R50_NE BOM_R50_SE BOM_R50_SW BOM_R50_NW BOM_R64_NE BOM_R64_SE BOM_R64_SW BOM_R64_NW BOM_ROCI BOM_POCI BOM_EYE BOM_POS_METHOD BOM_PRES_METHOD NADI_LAT NADI_LON NADI_CAT NADI_WIND NADI_PRES WELLINGTON_LAT WELLINGTON_LON WELLINGTON_WIND WELLINGTON_PRES DS824_LAT DS824_LON DS824_STAGE DS824_WIND DS824_PRES TD9636_LAT TD9636_LON TD9636_STAGE TD9636_WIND TD9636_PRES TD9635_LAT TD9635_LON TD9635_WIND TD9635_PRES TD9635_ROCI NEUMANN_LAT NEUMANN_LON NEUMANN_CLASS NEUMANN_WIND NEUMANN_PRES MLC_LAT MLC_LON MLC_CLASS MLC_WIND MLC_PRES USA_GUST BOM_GUST BOM_GUST_PER REUNION_GUST REUNION_GUST_PER USA_SEAHGT USA_SEARAD_NE USA_SEARAD_SE USA_SEARAD_SW USA_SEARAD_NW STORM_SPEED STORM_DIR
1988125S10071 1988 21 SI MM IARISENA 1988-05-04 00:00:00 NR -9.80000 71.0000 main 1834 1809 __________O___ -1 -9.80000 71.0000 1 15 6 272
1988125S10071 1988 21 SI MM IARISENA 1988-05-04 03:00:00 NR -9.78898 70.6717 main 1809 1776 __________P___ -1 -9.78898 70.6717 1 15 7 272
1988125S10071 1988 21 SI MM IARISENA 1988-05-04 06:00:00 NR -9.78228 70.3247 main 1776 1752 __________P___ -1 -9.78228 70.3247 1 15 7 270
1988125S10071 1988 21 SI MM IARISENA 1988-05-04 09:00:00 NR -9.78446 69.9404 main 1744 1712 __________P___ -1 -9.78446 69.9404 1 15 8 269
1988125S10071 1988 21 SI MM IARISENA 1988-05-04 12:00:00 NR -9.80000 69.5000 main 1712 1673 __________O___ -1 -9.80000 69.5000 1 15 9 267
1988125S10071 1988 21 SI MM IARISENA 1988-05-04 15:00:00 NR -9.82724 68.9956 main 1673 1634 __________P___ -1 -9.82724 68.9956 1 15 10 268
1988125S10071 1988 21 SI MM IARISENA 1988-05-04 18:00:00 NR -9.84055 68.4629 main 1634 1597 __________P___ -1 -9.84055 68.4629 1 15 10 271
1988125S10071 1988 21 SI MM IARISENA 1988-05-04 21:00:00 NR -9.80850 67.9487 main 1589 1567 __________P___ -1 -9.80850 67.9487 1 15 10 278
1988125S10071 1988 21 SI MM IARISENA 1988-05-05 00:00:00 NR -9.70000 67.5000 main 1568 1561 __________O___ -1 -9.70000 67.5000 1 15 8 296
1988125S10071 1988 21 SI MM IARISENA 1988-05-05 03:00:00 NR -9.45011 67.1983 main 1564 1564 __________P___ -1 -9.45011 67.1983 1 15 8 317
1988125S10071 1988 21 SI MM IARISENA 1988-05-05 06:00:00 NR -9.12934 66.9624 main 1585 1579 __________P___ -1 -9.12934 66.9624 1 15 8 326
1988125S10071 1988 21 SI MM IARISENA 1988-05-05 09:00:00 NR -8.79394 66.7452 main 1592 1592 __________P___ -1 -8.79394 66.7452 1 15 8 324
1988125S10071 1988 21 SI MM IARISENA 1988-05-05 12:00:00 NR -8.50000 66.5000 main 1606 1597 __________O___ -1 -8.50000 66.5000 1 15 8 309
1988125S10071 1988 21 SI MM IARISENA 1988-05-05 15:00:00 NR -8.30454 66.1407 main 1600 1592 __________P___ -1 -8.30454 66.1407 1 15 8 295
1988125S10071 1988 21 SI MM IARISENA 1988-05-05 18:00:00 NR -8.16024 65.7501 main 1592 1578 __________P___ -1 -8.16024 65.7501 1 15 8 287
1988125S10071 1988 21 SI MM IARISENA 1988-05-05 21:00:00 NR -8.06079 65.3594 main 1578 1566 __________P___ -1 -8.06079 65.3594 1 15 8 282
1988125S10071 1988 21 SI MM IARISENA 1988-05-06 00:00:00 NR -8.00000 65.0000 main 1566 1550 __________O___ -1 -8.00000 65.0000 1 15 6 279
1988125S10071 1988 21 SI MM IARISENA 1988-05-06 03:00:00 NR -7.95576 64.7142 main 1550 1524 __________P___ -1 -7.95576 64.7142 1 15 6 258
1988125S10071 1988 21 SI MM IARISENA 1988-05-06 06:00:00 TS -8.13783 64.3701 20 1003 reunion main 1524 1499 _____O____P___ -1 -8.90000 64.0000 2 20 1003 1.50000 1.50000 -7.94728 64.4627 1 15 7 243
1988125S10071 1988 21 SI MM IARISENA 1988-05-06 09:00:00 TS -8.24761 64.1224 main 1499 1479 _____P____P___ -1 -8.81250 63.9075 2 20 1003 -7.96517 64.2298 1 15 5 250
1988125S10071 1988 21 SI MM IARISENA 1988-05-06 12:00:00 TS -8.30000 63.9143 20 1003 reunion main 1479 1470 _____O____O___ -1 -8.70000 63.8000 2 20 1003 1.50000 1.50000 -8.00000 64.0000 1 15 4 266
1988125S10071 1988 21 SI MM IARISENA 1988-05-06 15:00:00 TS -8.28067 63.6771 main 1470 1465 _____P____P___ -1 -8.54999 63.6650 2 20 1003 -8.01135 63.6891 1 16 5 280
1988125S10071 1988 21 SI MM IARISENA 1988-05-06 18:00:00 TS -8.22007 63.4438 20 1003 reunion main 1466 1457 _____O____P___ -1 -8.40000 63.5000 2 20 1003 1.50000 1.50000 -8.04013 63.3876 1 17 5 282
1988125S10071 1988 21 SI MM IARISENA 1988-05-06 21:00:00 TS -8.18441 63.2249 main 1457 1453 _____P____P___ -1 -8.27000 63.3075 2 22 1001 -8.09882 63.1423 1 18 4 273
1988125S10071 1988 21 SI MM IARISENA 1988-05-07 00:00:00 TS -8.20000 63.0500 24 1000 reunion main 1453 1444 _____O____O___ -1 -8.20000 63.1000 2 24 1000 2.00000 2.00000 -8.20000 63.0000 1 20 3 269
1988125S10071 1988 21 SI MM IARISENA 1988-05-07 03:00:00 TS -8.18751 62.9431 main 1444 1434 _____P____P___ -1 -8.10753 62.8849 2 24 1000 -8.26749 63.0013 1 20 2 224
1988125S10071 1988 21 SI MM IARISENA 1988-05-07 06:00:00 TS -8.34502 62.9041 24 1000 reunion main 1434 1372 _____O____P___ -1 -8.30000 62.7000 2 24 1000 2.00000 2.00000 -8.39004 63.1081 1 20 7 183
1988125S10071 1988 21 SI MM IARISENA 1988-05-07 09:00:00 TS -8.88751 62.9018 main 1372 1315 _____P____P___ -1 -9.15746 62.5178 2 24 1000 -8.61756 63.2859 1 20 12 175
1988125S10071 1988 21 SI MM IARISENA 1988-05-07 12:00:00 TS -9.50000 63.0000 24 1000 reunion main 1315 1295 _____O____O___ -1 -10.0000 62.5000 2 24 1000 2.00000 2.00000 -9.00000 63.5000 1 20 10 160
1988125S10071 1988 21 SI MM IARISENA 1988-05-07 15:00:00 TS -9.86226 63.2575 main 1290 1270 _____P____P___ -1 -10.0675 62.7753 2 24 1000 -9.65700 63.7397 1 21 9 141
1988125S10071 1988 21 SI MM IARISENA 1988-05-07 18:00:00 TS -10.2277 63.6003 24 1000 reunion main 1275 1234 _____O____P___ -1 -10.0000 63.2000 2 24 1000 2.00000 2.00000 -10.4553 64.0007 1 22 12 145
1988125S10071 1988 21 SI MM IARISENA 1988-05-07 21:00:00 TS -10.7968 63.9332 main 1234 1196 _____P____P___ -1 -10.3176 63.6298 2 24 1000 -11.2759 64.2365 1 23 13 153
1988125S10071 1988 21 SI MM IARISENA 1988-05-08 00:00:00 TS -11.4000 64.2000 24 1000 reunion main 1196 1157 _____O____O___ -1 -10.8000 64.0000 2 24 1000 2.00000 2.00000 -12.0000 64.4000 1 25 12 162
1988125S10071 1988 21 SI MM IARISENA 1988-05-08 03:00:00 TS -11.9175 64.3142 main 1157 1110 _____P____P___ -1 -11.3499 64.2026 2 24 1000 -12.4851 64.4258 1 25 11 172
1988125S10071 1988 21 SI MM IARISENA 1988-05-08 06:00:00 TS -12.5029 64.3504 24 1000 reunion main 1110 1069 O____O____P_O_ jtwc_sh SH201988 -13.0000 64.4000 25 -1 -11.9000 64.3000 2 24 1000 2.00000 2.00000 -12.8572 64.3760 1 25 -13.0000 64.4000 TC 25 10 0
1988125S10071 1988 21 SI MM IARISENA 1988-05-08 09:00:00 TS -12.8869 64.3177 main 1069 1044 P____P____P_P_ SH201988 -13.1875 64.2925 25 -1 -12.3225 64.3726 2 26 998 -13.1508 64.2881 1 25 -13.1875 64.2925 TC 25 7 187
1988125S10071 1988 21 SI MM IARISENA 1988-05-08 12:00:00 TS -13.2000 64.2571 28 997 reunion main 1044 1011 O____O____O_O_ jtwc_sh SH201988 -13.4000 64.2000 25 -1 -12.7000 64.4000 2 28 997 2.50000 2.50000 -13.4000 64.2000 1 25 -13.4000 64.2000 TC 25 6 190
1988125S10071 1988 21 SI MM IARISENA 1988-05-08 15:00:00 TS -13.5183 64.2073 main 1011 987 P____P____P_P_ SH201988 -13.6500 64.1350 25 -1 -13.1000 64.4075 2 28 997 -13.6731 64.1516 1 25 -13.6500 64.1350 TC 25 6 188
1988125S10071 1988 21 SI MM IARISENA 1988-05-08 18:00:00 TS -13.8025 64.1781 28 997 reunion main 987 971 O____O____P_O_ jtwc_sh SH201988 -13.9000 64.1000 25 -1 -13.5000 64.4000 2 28 997 2.50000 2.50000 -13.9100 64.1125 1 25 -13.9000 64.1000 TC 25 5 184
1988125S10071 1988 21 SI MM IARISENA 1988-05-08 21:00:00 TS -14.0580 64.1637 main 963 947 P____P____P_P_ SH201988 -14.1075 64.0850 25 -1 -13.9000 64.3925 2 28 997 -14.1168 64.0922 1 25 -14.1075 64.0850 TC 25 5 0
1988125S10071 1988 21 SI MM IARISENA 1988-05-09 00:00:00 TS -14.3000 64.1750 28 997 reunion main 947 931 O____O____O_O_ jtwc_sh SH201988 -14.3000 64.1000 25 -1 -14.3000 64.4000 2 28 997 2.50000 2.50000 -14.3000 64.1000 1 25 -14.3000 64.1000 TC 25 5 176
1988125S10071 1988 21 SI MM IARISENA 1988-05-09 03:00:00 TS -14.5619 64.2118 main 924 916 P____P____P_P_ SH201988 -14.5150 64.1350 27 -1 -14.7300 64.4350 2 32 994 -14.4878 64.1421 1 27 -14.5150 64.1350 TC 27 5 169
1988125S10071 1988 21 SI MM IARISENA 1988-05-09 06:00:00 TS -14.7881 64.2781 36 991 reunion main 917 910 O____O____P_O_ jtwc_sh SH201988 -14.7000 64.2000 30 -1 -15.1000 64.5000 3 36 991 3.00000 3.00000 -14.6525 64.2124 1 30 -14.7000 64.2000 TC 30 4 158
1988125S10071 1988 21 SI MM IARISENA 1988-05-09 09:00:00 TS -14.9396 64.3698 main 918 911 P____P____P_P_ SH201988 -14.8225 64.2925 32 -1 -15.3225 64.5925 3 36 991 -14.7909 64.3015 1 32 -14.8225 64.2925 TC 32 3 144
1988125S10071 1988 21 SI MM IARISENA 1988-05-09 12:00:00 TS -15.0500 64.4750 36 991 reunion main 919 912 O____O____O_O_ jtwc_sh SH201988 -14.9000 64.4000 35 0 -15.5000 64.7000 3 36 991 3.00000 3.00000 -14.9000 64.4000 2 35 -14.9000 64.4000 TC 35 3 139
1988125S10071 1988 21 SI MM IARISENA 1988-05-09 15:00:00 TS -15.1676 64.5742 main 913 913 P____P____P_P_ SH201988 -14.9575 64.5000 37 0 -15.7725 64.8000 3 32 994 -14.9828 64.4969 2 36 -14.9575 64.5000 TC 37 3 137
1988125S10071 1988 21 SI MM IARISENA 1988-05-09 18:00:00 TS -15.2594 64.6750 28 997 reunion main 915 915 O____O____P_O_ jtwc_sh SH201988 -15.0000 64.6000 40 0 -16.0000 64.9000 2 28 997 2.50000 2.50000 -15.0375 64.6001 2 37 -15.0000 64.6000 TC 40 2 126
1988125S10071 1988 21 SI MM IARISENA 1988-05-09 21:00:00 TS -15.3115 64.7795 main 924 924 P____P____P_P_ SH201988 -15.0500 64.7075 40 0 -16.0725 65.0001 2 28 997 -15.0734 64.7032 2 38 -15.0500 64.7075 TC 40 2 115
1988125S10071 1988 21 SI MM IARISENA 1988-05-10 00:00:00 TS -15.3500 64.8750 28 997 reunion main 932 926 O____O____O_O_ jtwc_sh SH201988 -15.1000 64.8000 40 0 -16.1000 65.1000 2 28 997 2.50000 2.50000 -15.1000 64.8000 2 40 -15.1000 64.8000 TC 40 2 127
1988125S10071 1988 21 SI MM IARISENA 1988-05-10 03:00:00 TS -15.4165 64.9241 main 926 926 P____P____P_P_ SH201988 -15.1575 64.8500 37 0 -16.2149 65.1550 2 28 997 -15.1360 64.8416 2 38 -15.1575 64.8500 TC 37 2 134
1988125S10071 1988 21 SI MM IARISENA 1988-05-10 06:00:00 TS -15.4662 64.9956 28 997 reunion main 928 928 O____O____P_O_ jtwc_sh SH201988 -15.2000 64.9000 35 0 -16.3000 65.3000 2 28 997 2.50000 2.50000 -15.1646 64.8825 2 37 -15.2000 64.9000 TC 35 2 103
1988125S10071 1988 21 SI MM IARISENA 1988-05-10 09:00:00 TS -15.4646 65.1418 main 937 937 P____P____P_P_ SH201988 -15.2000 64.9775 35 0 -16.2726 65.6551 2 26 998 -15.1859 64.9572 2 36 -15.2000 64.9775 TC 35 3 87
1988125S10071 1988 21 SI MM IARISENA 1988-05-10 12:00:00 TS -15.4500 65.3500 24 1000 reunion main 970 954 O____O____O_O_ jtwc_sh SH201988 -15.2000 65.1000 35 0 -16.2000 66.1000 6 24 1000 2.00000 2.00000 -15.2000 65.1000 2 35 -15.2000 65.1000 TC 35 4 91
1988125S10071 1988 21 SI MM IARISENA 1988-05-10 15:00:00 TS -15.4738 65.5906 main 981 981 P____P____P_P_ SH201988 -15.2574 65.2474 35 0 -16.1650 66.5224 6 30 -15.2154 65.3449 2 33 -15.2574 65.2474 TC 35 5 93
1988125S10071 1988 21 SI MM IARISENA 1988-05-10 18:00:00 TS -15.4807 65.8900 36 reunion main 1009 1009 O____O____P_O_ jtwc_sh SH201988 -15.3000 65.5000 35 0 -16.1000 66.9000 6 36 9.90000 -15.2226 65.6599 2 32 -15.3000 65.5000 TC 35 6 87
1988125S10071 1988 21 SI MM IARISENA 1988-05-10 21:00:00 TS -15.4378 66.2581 main 1051 1051 P____P____P_P_ SH201988 -15.2650 65.9051 32 -1 -16.0024 67.2025 6 36 -15.2185 66.0199 2 31 -15.2650 65.9051 TC 32 7 80
1988125S10071 1988 21 SI MM IARISENA 1988-05-11 00:00:00 TS -15.3500 66.6500 36 reunion main 1094 1094 O____O____O_O_ jtwc_sh SH201988 -15.2000 66.4000 30 -1 -15.8000 67.4000 6 36 9.90000 -15.2000 66.4000 1 30 -15.2000 66.4000 TC 30 8 74
1988125S10071 1988 21 SI MM IARISENA 1988-05-11 03:00:00 TS -15.2145 67.0469 main 1127 1127 P____P____P_P_ SH201988 -15.1501 66.9300 27 -1 -15.3849 67.5100 6 36 -15.1729 66.8176 1 28 -15.1501 66.9300 TC 27 8 69
1988125S10071 1988 21 SI MM IARISENA 1988-05-11 06:00:00 TS -15.0826 67.3850 36 reunion main 1170 1170 O____O____P_O_ jtwc_sh SH201988 -15.1000 67.4000 25 -1 -15.0000 67.5000 6 36 9.90000 -15.1306 67.2402 1 27 -15.1000 67.4000 TC 25 6 70
1988125S10071 1988 21 SI MM IARISENA 1988-05-11 09:00:00 TS -15.0213 67.6044 main 1194 1194 P____P____P_P_ SH201988 -15.0574 67.7100 25 -1 -14.8975 67.3800 6 36 -15.0729 67.6176 1 26 -15.0574 67.7100 TC 25 3 72
1988125S10071 1988 21 SI MM IARISENA 1988-05-11 12:00:00 TS -14.9750 67.7250 36 reunion main 1203 1203 O____O____O_O_ jtwc_sh SH201988 -15.0000 67.9000 25 -1 -14.9000 67.2000 6 36 9.90000 -15.0000 67.9000 1 25 -15.0000 67.9000 TC 25 2 56
1988125S10071 1988 21 SI MM IARISENA 1988-05-11 15:00:00 TS -14.8956 67.7966 main 1218 1218 P____P____P_P_ SH201988 -14.9075 68.0450 25 -1 -14.8575 67.0425 6 36 -14.9099 68.0540 1 25 -14.9075 68.0450 TC 25 2 24
1988125S10071 1988 21 SI MM IARISENA 1988-05-11 18:00:00 TS -14.8018 67.8019 36 reunion main 1224 1224 O____O____P_O_ jtwc_sh SH201988 -14.8000 68.1000 25 -1 -14.8000 66.9000 6 36 9.90000 -14.8070 68.1074 1 25 -14.8000 68.1000 TC 25 2 351
1988125S10071 1988 21 SI MM IARISENA 1988-05-11 21:00:00 TS -14.7039 67.7549 main 1229 1220 P____P____P_P_ SH201988 -14.6925 68.0800 25 -1 -14.7300 66.7775 6 36 -14.7007 68.0821 1 25 -14.6925 68.0800 TC 25 2 328
1988125S10071 1988 21 SI MM IARISENA 1988-05-12 00:00:00 TS -14.6000 67.6750 36 reunion main 1226 1217 O____O____O_O_ jtwc_sh SH201988 -14.6000 68.0000 25 -1 -14.6000 66.7000 6 36 9.90000 -14.6000 68.0000 1 25 -14.6000 68.0000 TC 25 3 326
1988125S10071 1988 21 SI MM IARISENA 1988-05-12 03:00:00 TS -14.4931 67.6066 main 1223 1220 P____P____P_P_ SH201988 -14.5500 67.9225 27 -1 -14.3425 66.6850 6 36 -14.5301 67.8962 1 26 -14.5500 67.9225 TC 27 3 323
1988125S10071 1988 21 SI MM IARISENA 1988-05-12 06:00:00 TS -14.3913 67.5112 36 reunion main 1220 1217 O____O____P_O_ jtwc_sh SH201988 -14.5000 67.8000 30 -1 -14.1000 66.7000 6 36 9.90000 -14.4651 67.7450 1 27 -14.5000 67.8000 TC 30 3 309
1988125S10071 1988 21 SI MM IARISENA 1988-05-12 09:00:00 TS -14.3069 67.3697 main 1217 1205 P____P____P_P_ SH201988 -14.4075 67.6075 30 -1 -14.0200 66.6925 6 36 -14.3926 67.5713 1 28 -14.4075 67.6075 TC 30 3 301
1988125S10071 1988 21 SI MM IARISENA 1988-05-12 12:00:00 TS -14.2250 67.2250 36 reunion main 1205 1196 O____O____O_O_ jtwc_sh SH201988 -14.3000 67.4000 30 -1 -14.0000 66.7000 6 36 9.90000 -14.3000 67.4000 1 30 -14.3000 67.4000 TC 30 3 304
1988125S10071 1988 21 SI MM IARISENA 1988-05-12 15:00:00 TS -14.1380 67.1160 main 1203 1194 P____P____P_P_ SH201988 -14.2150 67.2350 30 -1 -13.9425 66.7425 6 36 -14.1797 67.2515 1 30 -14.2150 67.2350 TC 30 3 315
1988125S10071 1988 21 SI MM IARISENA 1988-05-12 18:00:00 TS -14.0344 67.0281 36 reunion main 1201 1201 O____O____P_O_ jtwc_sh SH201988 -14.1000 67.1000 30 -1 -13.9000 66.8000 6 36 9.90000 -14.0375 67.1124 1 30 -14.1000 67.1000 TC 30 3 327
1988125S10071 1988 21 SI MM IARISENA 1988-05-12 21:00:00 TS -13.8998 66.9511 main 1207 1198 P____P____P_P_ SH201988 -13.9150 66.9850 30 -1 -13.8925 66.8425 6 36 -13.8766 66.9921 1 30 -13.9150 66.9850 TC 30 3 336
1988125S10071 1988 21 SI MM IARISENA 1988-05-13 00:00:00 TS -13.7500 66.9000 36 reunion main 1212 1205 O____O____O_O_ jtwc_sh SH201988 -13.7000 66.9000 30 -1 -13.9000 66.9000 6 36 9.90000 -13.7000 66.9000 1 30 -13.7000 66.9000 TC 30 3 348
1988125S10071 1988 21 SI MM IARISENA 1988-05-13 03:00:00 TS -13.6024 66.8765 main 1219 1219 P____P____P_P_ SH201988 -13.5000 66.8350 27 -1 -13.9075 66.9775 6 36 -13.5021 66.8586 1 28 -13.5000 66.8350 TC 27 3 0
1988125S10071 1988 21 SI MM IARISENA 1988-05-13 06:00:00 TS -13.4481 66.8857 36 reunion main 1233 1233 O____O____P_O_ jtwc_sh SH201988 -13.3000 66.8000 25 -1 -13.9000 67.1000 6 36 9.90000 -13.2924 66.8427 1 27 -13.3000 66.8000 TC 25 3 10
1988125S10071 1988 21 SI MM IARISENA 1988-05-13 09:00:00 TS -13.2766 66.9326 main 1240 1240 P____P____P_P_ SH201988 -13.0850 66.8075 25 -1 -13.8500 67.2850 6 36 -13.0865 66.8305 1 26 -13.0850 66.8075 TC 25 4 10
1988125S10071 1988 21 SI MM IARISENA 1988-05-13 12:00:00 TS -13.0800 66.9400 36 reunion main 1254 1254 O____O____O_O_ jtwc_sh SH201988 -12.9000 66.8000 25 -1 -13.8000 67.5000 6 36 9.90000 -12.9000 66.8000 1 25 -12.9000 66.8000 TC 25 4 349
1988125S10071 1988 21 SI MM IARISENA 1988-05-13 15:00:00 TS -12.9212 66.8595 main 1268 1259 P____P____P_P_ SH201988 -12.7925 66.7150 25 -1 -13.7875 67.7050 6 36 -12.7453 66.7256 1 25 -12.7925 66.7150 TC 25 4 325
1988125S10071 1988 21 SI MM IARISENA 1988-05-13 18:00:00 TS -12.7577 66.7092 36 reunion main 1259 1258 O____O____P_O_ jtwc_sh SH201988 -12.7000 66.6000 25 -1 -13.8000 67.9000 6 36 9.90000 -12.6125 66.6300 1 25 -12.7000 66.6000 TC 25 5 319
1988125S10071 1988 21 SI MM IARISENA 1988-05-13 21:00:00 TS -12.5278 66.5064 main 1266 1258 P_________P_P_ SH201988 -12.5425 66.5000 25 -1 6 -12.4984 66.5194 1 25 -12.5425 66.5000 TC 25 5 320
1988125S10071 1988 21 SI MM IARISENA 1988-05-14 00:00:00 TS -12.4000 66.4000 main 1266 1258 O_________O_O_ jtwc_sh SH201988 -12.4000 66.4000 25 -1 -12.4000 66.4000 1 25 -12.4000 66.4000 TC 25 3 314
1988125S10071 1988 21 SI MM IARISENA 1988-05-14 03:00:00 TS -12.3330 66.2974 main 1266 1258 P_________P_P_ SH201988 -12.3425 66.3075 25 -1 -12.3141 66.2772 1 25 -12.3425 66.3075 TC 25 2 300
1988125S10071 1988 21 SI MM IARISENA 1988-05-14 06:00:00 TS -12.2792 66.1842 main 1258 1251 O_________P_O_ jtwc_sh SH201988 -12.3000 66.2000 25 -1 -12.2375 66.1525 1 25 -12.3000 66.2000 TC 25 3 299
1988125S10071 1988 21 SI MM IARISENA 1988-05-14 09:00:00 TS -12.1991 66.0488 main 1251 1251 P_________P_P_ SH201988 -12.2150 66.0600 25 -1 -12.1672 66.0265 1 25 -12.2150 66.0600 TC 25 3 303
1988125S10071 1988 21 SI MM IARISENA 1988-05-14 12:00:00 TS -12.1000 65.9000 main 1252 O_________O_O_ jtwc_sh SH201988 -12.1000 65.9000 25 -1 -12.1000 65.9000 1 25 -12.1000 65.9000 TC 25 4 304

About IBTrACS Database

This database is a web-friendly format of International Best Track Archive for Climate Stewardship (IBTrACS), a global best track data archive curated by NOAA dating back to 1842.

Updated: 2021-10-08